Impacts METAR Board INFO
IDs:

KMGM - Montgomery/Dannely F, AL, US

Updated at: 1159 UTC 24 Feb 2018
Potential Impact None Slight Moderate High
Time23/23Z 24/00Z 24/01Z 24/02Z 24/03Z 24/04Z 24/05Z 24/06Z 24/07Z 24/08Z 24/09Z 24/10Z 24/11Z
VIS10 10 10 10 10 10 10 10 10 10 10 10 10
CIG-- 50 75 -- -- -- -- 110 70 -- 110 120 120
CoverSCTOVCBKNCLRCLRCLRCLRBKNBKNCLRBKNOVCOVC
FltCatVFRVFRVFRVFRVFRVFRVFRVFRVFRVFRVFRVFRVFR
WX--------------------------
WDir2600190190200001201201500180150
WSpd3 0 3 5 6 0 0 4 3 3 0 4 5
WGst-- -- -- -- -- -- -- -- -- -- -- -- --
Raw hourly METARs
KMGM 232253Z 26003KT 10SM FEW055 SCT080 SCT100 27/17 A3021 RMK AO2 SLP229 T02670172
KMGM 232353Z 00000KT 10SM BKN050 OVC065 24/20 A3022 RMK AO2 RAB27E47 SLP230 P0001 60001 T02390200 10283 20233 55005
KMGM 240053Z 19003KT 10SM FEW047 BKN075 23/19 A3022 RMK AO2 SLP232 T02330189
KMGM 240153Z 19005KT 10SM CLR 23/18 A3023 RMK AO2 SLP234 T02280178
KMGM 240253Z 20006KT 10SM CLR 22/18 A3023 RMK AO2 SLP234 T02220178 51004
KMGM 240353Z 00000KT 10SM CLR 21/18 A3023 RMK AO2 SLP235 T02060178
KMGM 240453Z AUTO 00000KT 10SM CLR 21/18 A3022 RMK AO2 SLP231 T02060178
KMGM 240553Z AUTO 12004KT 10SM BKN110 19/18 A3021 RMK AO2 SLP226 T01940178 10239 20178 402830144 58007
KMGM 240653Z AUTO 12003KT 10SM BKN070 18/17 A3020 RMK AO2 SLP222 T01830172
KMGM 240753Z AUTO 15003KT 10SM CLR 18/17 A3019 RMK AO2 SLP219 T01830167
KMGM 240853Z AUTO 00000KT 10SM BKN110 18/17 A3017 RMK AO2 SLP214 T01830167 58012
KMGM 240953Z AUTO 18004KT 10SM OVC120 18/17 A3017 RMK AO2 SLP213 T01780167
KMGM 241053Z AUTO 15005KT 10SM OVC120 18/17 A3016 RMK AO2 SLP209 T01780167